sensor_id;sensor_type;location;lat;lon;timestamp;pressure;altitude;pressure_sealevel;temperature;humidity
2711;BME280;20721;47.402;8.550;2022-11-20T00:00:14;95724;;;8.86;59.66
2711;BME280;20721;47.402;8.550;2022-11-20T00:01:14;95720;;;8.85;59.50
2711;BME280;20721;47.402;8.550;2022-11-20T00:02:14;95718;;;8.84;59.52
2711;BME280;20721;47.402;8.550;2022-11-20T00:05:13;95720;;;8.83;59.67
2711;BME280;20721;47.402;8.550;2022-11-20T00:12:13;95725;;;8.84;59.67
2711;BME280;20721;47.402;8.550;2022-11-20T00:14:13;95726;;;8.87;59.65
2711;BME280;20721;47.402;8.550;2022-11-20T00:16:14;95729;;;8.88;59.60
2711;BME280;20721;47.402;8.550;2022-11-20T00:17:13;95728;;;8.91;59.61
2711;BME280;20721;47.402;8.550;2022-11-20T00:19:13;95729;;;8.94;59.50
2711;BME280;20721;47.402;8.550;2022-11-20T00:20:13;95729;;;8.96;59.54
2711;BME280;20721;47.402;8.550;2022-11-20T00:21:14;95732;;;9.00;59.46
2711;BME280;20721;47.402;8.550;2022-11-20T00:22:13;95727;;;9.01;59.31
2711;BME280;20721;47.402;8.550;2022-11-20T00:24:13;95731;;;9.00;59.31
2711;BME280;20721;47.402;8.550;2022-11-20T00:25:13;95731;;;9.01;59.18
2711;BME280;20721;47.402;8.550;2022-11-20T00:28:13;95732;;;9.02;59.28
2711;BME280;20721;47.402;8.550;2022-11-20T00:30:15;95730;;;9.00;59.14
2711;BME280;20721;47.402;8.550;2022-11-20T00:31:13;95732;;;8.99;59.03
2711;BME280;20721;47.402;8.550;2022-11-20T00:32:13;95728;;;8.98;59.17
2711;BME280;20721;47.402;8.550;2022-11-20T00:33:13;95735;;;8.97;59.10
2711;BME280;20721;47.402;8.550;2022-11-20T00:34:13;95734;;;8.98;59.13
2711;BME280;20721;47.402;8.550;2022-11-20T00:36:14;95735;;;8.97;59.04
2711;BME280;20721;47.402;8.550;2022-11-20T00:37:13;95732;;;8.98;59.05
2711;BME280;20721;47.402;8.550;2022-11-20T00:38:13;95735;;;8.99;58.97
2711;BME280;20721;47.402;8.550;2022-11-20T00:39:13;95734;;;9.00;58.99
2711;BME280;20721;47.402;8.550;2022-11-20T00:40:13;95735;;;8.99;58.87
2711;BME280;20721;47.402;8.550;2022-11-20T00:41:14;95737;;;9.01;58.84
2711;BME280;20721;47.402;8.550;2022-11-20T00:42:13;95739;;;9.04;58.90
2711;BME280;20721;47.402;8.550;2022-11-20T00:44:13;95740;;;9.03;58.44
2711;BME280;20721;47.402;8.550;2022-11-20T00:45:13;95744;;;9.04;58.56
2711;BME280;20721;47.402;8.550;2022-11-20T00:46:14;95747;;;9.08;58.53
2711;BME280;20721;47.402;8.550;2022-11-20T00:47:13;95743;;;9.10;58.43
2711;BME280;20721;47.402;8.550;2022-11-20T00:48:13;95746;;;9.13;58.40
2711;BME280;20721;47.402;8.550;2022-11-20T00:49:13;95745;;;9.12;58.31
2711;BME280;20721;47.402;8.550;2022-11-20T00:51:14;95742;;;9.13;58.30
2711;BME280;20721;47.402;8.550;2022-11-20T00:52:13;95743;;;9.15;58.26
2711;BME280;20721;47.402;8.550;2022-11-20T00:53:13;95743;;;9.17;58.23
2711;BME280;20721;47.402;8.550;2022-11-20T00:54:13;95742;;;9.20;58.20
2711;BME280;20721;47.402;8.550;2022-11-20T00:55:13;95743;;;9.23;58.11
2711;BME280;20721;47.402;8.550;2022-11-20T00:57:13;95740;;;9.15;57.97
2711;BME280;20721;47.402;8.550;2022-11-20T00:58:14;95742;;;9.11;57.88
2711;BME280;20721;47.402;8.550;2022-11-20T00:59:13;95742;;;9.10;58.00
2711;BME280;20721;47.402;8.550;2022-11-20T01:00:14;95747;;;9.11;58.05
2711;BME280;20721;47.402;8.550;2022-11-20T01:01:17;95748;;;9.12;58.02
2711;BME280;20721;47.402;8.550;2022-11-20T01:02:16;95748;;;9.15;57.89
2711;BME280;20721;47.402;8.550;2022-11-20T01:03:13;95751;;;9.16;57.82
2711;BME280;20721;47.402;8.550;2022-11-20T01:04:13;95746;;;9.18;57.78
2711;BME280;20721;47.402;8.550;2022-11-20T01:05:13;95746;;;9.16;57.78
2711;BME280;20721;47.402;8.550;2022-11-20T01:07:13;95746;;;9.14;57.58
2711;BME280;20721;47.402;8.550;2022-11-20T01:09:13;95751;;;9.13;57.65
2711;BME280;20721;47.402;8.550;2022-11-20T01:10:13;95752;;;9.10;57.64
2711;BME280;20721;47.402;8.550;2022-11-20T01:11:14;95753;;;9.07;57.61
2711;BME280;20721;47.402;8.550;2022-11-20T01:12:13;95753;;;9.06;57.69
2711;BME280;20721;47.402;8.550;2022-11-20T01:13:23;95749;;;9.05;57.68
2711;BME280;20721;47.402;8.550;2022-11-20T01:14:14;95749;;;9.06;57.78
2711;BME280;20721;47.402;8.550;2022-11-20T01:15:13;95749;;;9.04;57.53
2711;BME280;20721;47.402;8.550;2022-11-20T01:16:15;95752;;;9.03;57.67
2711;BME280;20721;47.402;8.550;2022-11-20T01:18:13;95753;;;9.05;57.70
2711;BME280;20721;47.402;8.550;2022-11-20T01:19:19;95755;;;9.06;57.47
2711;BME280;20721;47.402;8.550;2022-11-20T01:20:13;95754;;;9.07;57.48
2711;BME280;20721;47.402;8.550;2022-11-20T01:21:14;95754;;;9.09;57.50
2711;BME280;20721;47.402;8.550;2022-11-20T01:22:13;95754;;;9.12;57.53
2711;BME280;20721;47.402;8.550;2022-11-20T01:23:13;95757;;;9.14;57.53
2711;BME280;20721;47.402;8.550;2022-11-20T01:24:14;95756;;;9.17;57.60
2711;BME280;20721;47.402;8.550;2022-11-20T01:25:13;95757;;;9.19;57.65
2711;BME280;20721;47.402;8.550;2022-11-20T01:26:14;95761;;;9.21;57.57
2711;BME280;20721;47.402;8.550;2022-11-20T01:27:13;95760;;;9.24;57.49
2711;BME280;20721;47.402;8.550;2022-11-20T01:28:13;95760;;;9.25;57.40
2711;BME280;20721;47.402;8.550;2022-11-20T01:29:14;95760;;;9.28;57.32
2711;BME280;20721;47.402;8.550;2022-11-20T01:30:13;95762;;;9.29;57.28
2711;BME280;20721;47.402;8.550;2022-11-20T01:32:13;95763;;;9.30;57.20
2711;BME280;20721;47.402;8.550;2022-11-20T01:33:13;95767;;;9.32;57.21
2711;BME280;20721;47.402;8.550;2022-11-20T01:36:14;95763;;;9.31;57.16
2711;BME280;20721;47.402;8.550;2022-11-20T01:37:13;95763;;;9.29;57.19
2711;BME280;20721;47.402;8.550;2022-11-20T01:38:15;95761;;;9.27;57.13
2711;BME280;20721;47.402;8.550;2022-11-20T01:39:14;95764;;;9.26;57.10
2711;BME280;20721;47.402;8.550;2022-11-20T01:40:13;95765;;;9.28;57.17
2711;BME280;20721;47.402;8.550;2022-11-20T01:41:24;95758;;;9.27;57.18
2711;BME280;20721;47.402;8.550;2022-11-20T01:42:23;95765;;;9.26;57.09
2711;BME280;20721;47.402;8.550;2022-11-20T01:43:20;95764;;;9.27;57.23
2711;BME280;20721;47.402;8.550;2022-11-20T01:44:15;95762;;;9.26;56.98
2711;BME280;20721;47.402;8.550;2022-11-20T01:46:16;95766;;;9.21;56.87
2711;BME280;20721;47.402;8.550;2022-11-20T01:47:16;95764;;;9.19;56.92
2711;BME280;20721;47.402;8.550;2022-11-20T01:48:14;95764;;;9.17;57.08
2711;BME280;20721;47.402;8.550;2022-11-20T01:49:19;95767;;;9.15;57.16
2711;BME280;20721;47.402;8.550;2022-11-20T01:51:17;95767;;;9.17;57.13
2711;BME280;20721;47.402;8.550;2022-11-20T01:52:15;95766;;;9.19;57.09
2711;BME280;20721;47.402;8.550;2022-11-20T01:53:14;95772;;;9.20;56.98
2711;BME280;20721;47.402;8.550;2022-11-20T01:54:16;95770;;;9.23;57.01
2711;BME280;20721;47.402;8.550;2022-11-20T01:55:17;95772;;;9.25;56.93
2711;BME280;20721;47.402;8.550;2022-11-20T01:56:14;95769;;;9.27;56.74
2711;BME280;20721;47.402;8.550;2022-11-20T01:57:13;95770;;;9.28;56.74
2711;BME280;20721;47.402;8.550;2022-11-20T02:02:14;95776;;;9.27;56.83
2711;BME280;20721;47.402;8.550;2022-11-20T02:04:13;95774;;;9.26;56.81
2711;BME280;20721;47.402;8.550;2022-11-20T02:07:13;95776;;;9.28;56.88
2711;BME280;20721;47.402;8.550;2022-11-20T02:08:14;95769;;;9.30;56.70
2711;BME280;20721;47.402;8.550;2022-11-20T02:09:14;95776;;;9.31;56.64
2711;BME280;20721;47.402;8.550;2022-11-20T02:10:14;95774;;;9.30;56.57
2711;BME280;20721;47.402;8.550;2022-11-20T02:11:14;95776;;;9.28;56.67
2711;BME280;20721;47.402;8.550;2022-11-20T02:13:24;95774;;;9.25;56.35
2711;BME280;20721;47.402;8.550;2022-11-20T02:14:13;95776;;;9.22;56.39
2711;BME280;20721;47.402;8.550;2022-11-20T02:15:14;95776;;;9.19;56.26
2711;BME280;20721;47.402;8.550;2022-11-20T02:17:13;95772;;;9.21;56.14
2711;BME280;20721;47.402;8.550;2022-11-20T02:18:14;95771;;;9.20;56.27
2711;BME280;20721;47.402;8.550;2022-11-20T02:19:30;95770;;;9.19;56.08
2711;BME280;20721;47.402;8.550;2022-11-20T02:20:13;95768;;;9.17;56.18
2711;BME280;20721;47.402;8.550;2022-11-20T02:21:19;95770;;;9.16;56.06
2711;BME280;20721;47.402;8.550;2022-11-20T02:22:18;95772;;;9.15;55.90
2711;BME280;20721;47.402;8.550;2022-11-20T02:23:20;95768;;;9.14;55.88
2711;BME280;20721;47.402;8.550;2022-11-20T02:24:14;95768;;;9.13;55.96
2711;BME280;20721;47.402;8.550;2022-11-20T02:26:13;95772;;;9.14;56.11
2711;BME280;20721;47.402;8.550;2022-11-20T02:28:14;95769;;;9.13;55.77
2711;BME280;20721;47.402;8.550;2022-11-20T02:30:14;95771;;;9.10;55.78
2711;BME280;20721;47.402;8.550;2022-11-20T02:31:14;95778;;;9.09;55.98
2711;BME280;20721;47.402;8.550;2022-11-20T02:32:22;95778;;;9.08;56.10
2711;BME280;20721;47.402;8.550;2022-11-20T02:33:14;95778;;;9.09;56.00
2711;BME280;20721;47.402;8.550;2022-11-20T02:34:14;95774;;;9.10;56.02
2711;BME280;20721;47.402;8.550;2022-11-20T02:36:14;95779;;;9.14;55.91
2711;BME280;20721;47.402;8.550;2022-11-20T02:37:14;95778;;;9.13;55.92
2711;BME280;20721;47.402;8.550;2022-11-20T02:38:14;95779;;;9.12;55.90
2711;BME280;20721;47.402;8.550;2022-11-20T02:39:16;95778;;;9.13;55.93
2711;BME280;20721;47.402;8.550;2022-11-20T02:40:14;95781;;;9.11;55.96
2711;BME280;20721;47.402;8.550;2022-11-20T02:42:13;95775;;;9.10;55.96
2711;BME280;20721;47.402;8.550;2022-11-20T02:43:15;95774;;;9.08;55.92
2711;BME280;20721;47.402;8.550;2022-11-20T02:44:13;95776;;;9.07;56.09
2711;BME280;20721;47.402;8.550;2022-11-20T02:45:13;95778;;;9.08;56.07
2711;BME280;20721;47.402;8.550;2022-11-20T02:46:13;95781;;;9.09;55.97
2711;BME280;20721;47.402;8.550;2022-11-20T02:47:13;95776;;;9.08;55.97
2711;BME280;20721;47.402;8.550;2022-11-20T02:48:13;95770;;;9.07;56.09
2711;BME280;20721;47.402;8.550;2022-11-20T02:49:13;95769;;;9.08;56.00
2711;BME280;20721;47.402;8.550;2022-11-20T02:51:13;95768;;;9.10;56.01
2711;BME280;20721;47.402;8.550;2022-11-20T02:52:13;95766;;;9.11;56.00
2711;BME280;20721;47.402;8.550;2022-11-20T02:53:13;95764;;;9.13;55.99
2711;BME280;20721;47.402;8.550;2022-11-20T02:55:13;95767;;;9.04;56.02
2711;BME280;20721;47.402;8.550;2022-11-20T02:56:13;95770;;;8.98;56.27
2711;BME280;20721;47.402;8.550;2022-11-20T02:57:13;95769;;;8.93;56.34
2711;BME280;20721;47.402;8.550;2022-11-20T02:58:13;95768;;;8.91;56.35
2711;BME280;20721;47.402;8.550;2022-11-20T02:59:13;95765;;;8.89;56.40
2711;BME280;20721;47.402;8.550;2022-11-20T03:00:13;95768;;;8.90;56.50
2711;BME280;20721;47.402;8.550;2022-11-20T03:03:13;95766;;;8.92;56.47
2711;BME280;20721;47.402;8.550;2022-11-20T03:04:13;95768;;;8.94;56.44
2711;BME280;20721;47.402;8.550;2022-11-20T03:07:13;95767;;;8.97;56.53
2711;BME280;20721;47.402;8.550;2022-11-20T03:08:13;95768;;;8.96;56.51
2711;BME280;20721;47.402;8.550;2022-11-20T03:09:13;95765;;;8.94;56.47
2711;BME280;20721;47.402;8.550;2022-11-20T03:10:13;95765;;;8.92;56.53
2711;BME280;20721;47.402;8.550;2022-11-20T03:11:14;95765;;;8.91;56.63
2711;BME280;20721;47.402;8.550;2022-11-20T03:12:13;95766;;;8.90;56.81
2711;BME280;20721;47.402;8.550;2022-11-20T03:13:13;95764;;;8.92;56.79
2711;BME280;20721;47.402;8.550;2022-11-20T03:14:14;95765;;;8.94;56.67
2711;BME280;20721;47.402;8.550;2022-11-20T03:15:13;95764;;;8.93;56.70
2711;BME280;20721;47.402;8.550;2022-11-20T03:16:15;95759;;;8.95;56.71
2711;BME280;20721;47.402;8.550;2022-11-20T03:17:13;95764;;;8.99;56.66
2711;BME280;20721;47.402;8.550;2022-11-20T03:18:14;95760;;;9.02;56.42
2711;BME280;20721;47.402;8.550;2022-11-20T03:19:13;95760;;;9.01;56.24
2711;BME280;20721;47.402;8.550;2022-11-20T03:20:13;95759;;;9.02;56.24
2711;BME280;20721;47.402;8.550;2022-11-20T03:21:14;95757;;;8.97;56.57
2711;BME280;20721;47.402;8.550;2022-11-20T03:22:13;95760;;;8.95;56.54
2711;BME280;20721;47.402;8.550;2022-11-20T03:23:14;95756;;;8.92;56.39
2711;BME280;20721;47.402;8.550;2022-11-20T03:24:14;95758;;;8.94;56.41
2711;BME280;20721;47.402;8.550;2022-11-20T03:25:13;95759;;;8.95;56.30
2711;BME280;20721;47.402;8.550;2022-11-20T03:26:15;95762;;;8.98;56.23
2711;BME280;20721;47.402;8.550;2022-11-20T03:27:13;95759;;;9.01;55.99
2711;BME280;20721;47.402;8.550;2022-11-20T03:28:13;95761;;;9.03;56.10
2711;BME280;20721;47.402;8.550;2022-11-20T03:29:13;95762;;;9.02;56.02
2711;BME280;20721;47.402;8.550;2022-11-20T03:30:13;95761;;;9.01;55.95
2711;BME280;20721;47.402;8.550;2022-11-20T03:31:14;95763;;;8.99;55.99
2711;BME280;20721;47.402;8.550;2022-11-20T03:32:13;95762;;;9.00;55.82
2711;BME280;20721;47.402;8.550;2022-11-20T03:33:14;95760;;;9.03;55.88
2711;BME280;20721;47.402;8.550;2022-11-20T03:34:14;95762;;;9.06;55.74
2711;BME280;20721;47.402;8.550;2022-11-20T03:36:14;95758;;;9.07;55.62
2711;BME280;20721;47.402;8.550;2022-11-20T03:37:13;95757;;;9.06;55.54
2711;BME280;20721;47.402;8.550;2022-11-20T03:38:14;95762;;;9.05;55.55
2711;BME280;20721;47.402;8.550;2022-11-20T03:41:15;95766;;;9.07;55.55
2711;BME280;20721;47.402;8.550;2022-11-20T03:42:23;95763;;;9.08;55.47
2711;BME280;20721;47.402;8.550;2022-11-20T03:44:13;95765;;;9.06;55.60
2711;BME280;20721;47.402;8.550;2022-11-20T03:48:14;95773;;;9.07;55.60
2711;BME280;20721;47.402;8.550;2022-11-20T03:49:14;95775;;;9.09;55.54
2711;BME280;20721;47.402;8.550;2022-11-20T03:50:14;95776;;;9.08;55.41
2711;BME280;20721;47.402;8.550;2022-11-20T03:51:15;95776;;;9.06;55.54
2711;BME280;20721;47.402;8.550;2022-11-20T03:53:14;95774;;;9.03;55.46
2711;BME280;20721;47.402;8.550;2022-11-20T03:54:14;95775;;;9.00;55.71
2711;BME280;20721;47.402;8.550;2022-11-20T03:55:14;95778;;;8.98;55.80
2711;BME280;20721;47.402;8.550;2022-11-20T03:57:14;95777;;;8.99;55.96
2711;BME280;20721;47.402;8.550;2022-11-20T03:58:14;95778;;;9.01;55.87
2711;BME280;20721;47.402;8.550;2022-11-20T03:59:14;95779;;;9.02;55.88
2711;BME280;20721;47.402;8.550;2022-11-20T04:00:14;95781;;;9.04;56.01
2711;BME280;20721;47.402;8.550;2022-11-20T04:02:14;95779;;;9.02;55.92
2711;BME280;20721;47.402;8.550;2022-11-20T04:03:14;95783;;;9.01;55.97
2711;BME280;20721;47.402;8.550;2022-11-20T04:04:14;95786;;;9.02;56.12
2711;BME280;20721;47.402;8.550;2022-11-20T04:05:14;95786;;;9.04;56.00
2711;BME280;20721;47.402;8.550;2022-11-20T04:06:18;95786;;;9.05;56.15
2711;BME280;20721;47.402;8.550;2022-11-20T04:07:14;95790;;;9.07;56.16
2711;BME280;20721;47.402;8.550;2022-11-20T04:08:14;95786;;;9.09;56.22
2711;BME280;20721;47.402;8.550;2022-11-20T04:09:15;95784;;;9.11;56.22
2711;BME280;20721;47.402;8.550;2022-11-20T04:10:14;95786;;;9.10;56.23
2711;BME280;20721;47.402;8.550;2022-11-20T04:11:15;95785;;;9.11;56.20
2711;BME280;20721;47.402;8.550;2022-11-20T04:12:14;95787;;;9.13;56.22
2711;BME280;20721;47.402;8.550;2022-11-20T04:13:14;95785;;;9.16;56.25
2711;BME280;20721;47.402;8.550;2022-11-20T04:14:14;95781;;;9.18;56.25
2711;BME280;20721;47.402;8.550;2022-11-20T04:16:14;95782;;;9.21;56.17
2711;BME280;20721;47.402;8.550;2022-11-20T04:17:14;95783;;;9.22;56.20
2711;BME280;20721;47.402;8.550;2022-11-20T04:18:14;95779;;;9.23;56.27
2711;BME280;20721;47.402;8.550;2022-11-20T04:21:14;95779;;;9.21;56.22
2711;BME280;20721;47.402;8.550;2022-11-20T04:22:14;95779;;;9.19;56.26
2711;BME280;20721;47.402;8.550;2022-11-20T04:24:14;95775;;;9.17;56.09
2711;BME280;20721;47.402;8.550;2022-11-20T04:25:14;95778;;;9.19;56.08
2711;BME280;20721;47.402;8.550;2022-11-20T04:28:14;95777;;;9.16;55.96
2711;BME280;20721;47.402;8.550;2022-11-20T04:29:14;95776;;;9.12;56.02
2711;BME280;20721;47.402;8.550;2022-11-20T04:30:14;95776;;;9.11;55.97
2711;BME280;20721;47.402;8.550;2022-11-20T04:31:15;95778;;;9.10;55.96
2711;BME280;20721;47.402;8.550;2022-11-20T04:33:14;95773;;;9.11;55.90
2711;BME280;20721;47.402;8.550;2022-11-20T04:35:14;95778;;;9.12;55.83
2711;BME280;20721;47.402;8.550;2022-11-20T04:36:15;95779;;;9.13;55.78
2711;BME280;20721;47.402;8.550;2022-11-20T04:37:14;95778;;;9.12;55.60
2711;BME280;20721;47.402;8.550;2022-11-20T04:38:14;95781;;;9.05;55.75
2711;BME280;20721;47.402;8.550;2022-11-20T04:39:15;95779;;;8.91;55.98
2711;BME280;20721;47.402;8.550;2022-11-20T04:40:14;95781;;;8.76;56.27
2711;BME280;20721;47.402;8.550;2022-11-20T04:41:16;95781;;;8.72;56.48
2711;BME280;20721;47.402;8.550;2022-11-20T04:42:24;95780;;;8.73;56.71
2711;BME280;20721;47.402;8.550;2022-11-20T04:43:14;95776;;;8.76;56.69
2711;BME280;20721;47.402;8.550;2022-11-20T04:44:14;95779;;;8.75;56.62
2711;BME280;20721;47.402;8.550;2022-11-20T04:45:14;95775;;;8.70;56.85
2711;BME280;20721;47.402;8.550;2022-11-20T04:46:14;95776;;;8.67;56.79
2711;BME280;20721;47.402;8.550;2022-11-20T04:47:14;95778;;;8.64;56.75
2711;BME280;20721;47.402;8.550;2022-11-20T04:48:14;95775;;;8.52;56.79
2711;BME280;20721;47.402;8.550;2022-11-20T04:49:14;95773;;;8.48;56.96
2711;BME280;20721;47.402;8.550;2022-11-20T04:50:14;95770;;;8.47;56.99
2711;BME280;20721;47.402;8.550;2022-11-20T04:51:14;95774;;;8.45;57.02
2711;BME280;20721;47.402;8.550;2022-11-20T04:52:14;95775;;;8.42;57.14
2711;BME280;20721;47.402;8.550;2022-11-20T04:54:14;95774;;;8.43;57.26
2711;BME280;20721;47.402;8.550;2022-11-20T04:55:14;95774;;;8.41;57.11
2711;BME280;20721;47.402;8.550;2022-11-20T04:56:14;95772;;;8.22;57.43
2711;BME280;20721;47.402;8.550;2022-11-20T04:57:15;95774;;;8.06;57.80
2711;BME280;20721;47.402;8.550;2022-11-20T04:58:14;95779;;;8.00;58.11
2711;BME280;20721;47.402;8.550;2022-11-20T04:59:14;95773;;;8.01;58.15
2711;BME280;20721;47.402;8.550;2022-11-20T05:00:14;95776;;;8.05;58.13
2711;BME280;20721;47.402;8.550;2022-11-20T05:01:15;95771;;;8.00;57.88
2711;BME280;20721;47.402;8.550;2022-11-20T05:02:14;95766;;;7.95;57.95
2711;BME280;20721;47.402;8.550;2022-11-20T05:04:14;95768;;;7.93;58.00
2711;BME280;20721;47.402;8.550;2022-11-20T05:05:14;95766;;;7.88;57.82
2711;BME280;20721;47.402;8.550;2022-11-20T05:06:15;95769;;;7.86;57.94
2711;BME280;20721;47.402;8.550;2022-11-20T05:07:14;95770;;;7.88;57.87
2711;BME280;20721;47.402;8.550;2022-11-20T05:09:14;95767;;;7.86;57.69
2711;BME280;20721;47.402;8.550;2022-11-20T05:10:14;95771;;;7.88;57.58
2711;BME280;20721;47.402;8.550;2022-11-20T05:11:15;95772;;;7.90;57.71
2711;BME280;20721;47.402;8.550;2022-11-20T05:12:14;95772;;;7.87;57.66
2711;BME280;20721;47.402;8.550;2022-11-20T05:13:14;95776;;;7.79;57.61
2711;BME280;20721;47.402;8.550;2022-11-20T05:14:14;95775;;;7.77;57.65
2711;BME280;20721;47.402;8.550;2022-11-20T05:15:14;95775;;;7.76;57.68
2711;BME280;20721;47.402;8.550;2022-11-20T05:16:15;95775;;;7.75;57.72
2711;BME280;20721;47.402;8.550;2022-11-20T05:17:14;95773;;;7.76;57.81
2711;BME280;20721;47.402;8.550;2022-11-20T05:18:14;95775;;;7.80;57.73
2711;BME280;20721;47.402;8.550;2022-11-20T05:19:14;95771;;;7.84;57.58
2711;BME280;20721;47.402;8.550;2022-11-20T05:20:14;95770;;;7.89;57.60
2711;BME280;20721;47.402;8.550;2022-11-20T05:22:14;95772;;;7.94;57.08
2711;BME280;20721;47.402;8.550;2022-11-20T05:23:14;95774;;;7.95;56.97
2711;BME280;20721;47.402;8.550;2022-11-20T05:24:14;95775;;;7.90;56.60
2711;BME280;20721;47.402;8.550;2022-11-20T05:25:14;95773;;;7.89;56.69
2711;BME280;20721;47.402;8.550;2022-11-20T05:26:16;95777;;;7.85;56.74
2711;BME280;20721;47.402;8.550;2022-11-20T05:27:14;95776;;;7.86;56.83
2711;BME280;20721;47.402;8.550;2022-11-20T05:28:14;95779;;;7.89;56.77
2711;BME280;20721;47.402;8.550;2022-11-20T05:29:14;95780;;;7.91;56.72
2711;BME280;20721;47.402;8.550;2022-11-20T05:30:14;95781;;;7.93;56.73
2711;BME280;20721;47.402;8.550;2022-11-20T05:31:15;95785;;;7.97;56.74
2711;BME280;20721;47.402;8.550;2022-11-20T05:32:14;95788;;;8.00;56.68
2711;BME280;20721;47.402;8.550;2022-11-20T05:33:14;95789;;;8.03;56.70
2711;BME280;20721;47.402;8.550;2022-11-20T05:34:14;95787;;;8.06;56.64
2711;BME280;20721;47.402;8.550;2022-11-20T05:35:14;95789;;;8.08;56.47
2711;BME280;20721;47.402;8.550;2022-11-20T05:37:14;95788;;;8.09;56.43
2711;BME280;20721;47.402;8.550;2022-11-20T05:38:14;95792;;;8.10;56.46
2711;BME280;20721;47.402;8.550;2022-11-20T05:39:14;95790;;;8.13;56.49
2711;BME280;20721;47.402;8.550;2022-11-20T05:40:14;95790;;;8.17;56.38
2711;BME280;20721;47.402;8.550;2022-11-20T05:41:15;95793;;;8.19;56.34
2711;BME280;20721;47.402;8.550;2022-11-20T05:42:24;95791;;;8.21;56.39
2711;BME280;20721;47.402;8.550;2022-11-20T05:43:14;95792;;;8.24;56.45
2711;BME280;20721;47.402;8.550;2022-11-20T05:44:14;95792;;;8.25;56.43
2711;BME280;20721;47.402;8.550;2022-11-20T05:45:14;95789;;;8.26;56.50
2711;BME280;20721;47.402;8.550;2022-11-20T05:46:14;95789;;;8.24;56.60
2711;BME280;20721;47.402;8.550;2022-11-20T05:48:14;95783;;;8.17;56.74
2711;BME280;20721;47.402;8.550;2022-11-20T05:49:14;95788;;;8.03;56.90
2711;BME280;20721;47.402;8.550;2022-11-20T05:50:14;95791;;;7.91;57.22
2711;BME280;20721;47.402;8.550;2022-11-20T05:51:15;95790;;;7.86;57.51
2711;BME280;20721;47.402;8.550;2022-11-20T05:52:14;95793;;;7.89;57.68
2711;BME280;20721;47.402;8.550;2022-11-20T05:53:14;95792;;;7.93;57.79
2711;BME280;20721;47.402;8.550;2022-11-20T05:54:14;95796;;;8.00;57.75
2711;BME280;20721;47.402;8.550;2022-11-20T05:55:14;95794;;;8.06;57.66
2711;BME280;20721;47.402;8.550;2022-11-20T05:56:15;95798;;;8.14;57.51
2711;BME280;20721;47.402;8.550;2022-11-20T05:57:14;95798;;;8.20;57.46
2711;BME280;20721;47.402;8.550;2022-11-20T05:58:14;95799;;;8.24;57.23
2711;BME280;20721;47.402;8.550;2022-11-20T05:59:14;95800;;;8.28;57.07
2711;BME280;20721;47.402;8.550;2022-11-20T06:00:14;95802;;;8.29;56.80
2711;BME280;20721;47.402;8.550;2022-11-20T06:01:15;95800;;;8.28;56.53
2711;BME280;20721;47.402;8.550;2022-11-20T06:02:14;95803;;;8.29;56.57
2711;BME280;20721;47.402;8.550;2022-11-20T06:03:14;95805;;;8.33;56.57
2711;BME280;20721;47.402;8.550;2022-11-20T06:04:14;95801;;;8.34;56.49
2711;BME280;20721;47.402;8.550;2022-11-20T06:05:14;95802;;;8.33;56.39
2711;BME280;20721;47.402;8.550;2022-11-20T06:06:14;95803;;;8.30;56.31
2711;BME280;20721;47.402;8.550;2022-11-20T06:08:14;95805;;;8.26;56.21
2711;BME280;20721;47.402;8.550;2022-11-20T06:09:14;95806;;;8.17;56.54
2711;BME280;20721;47.402;8.550;2022-11-20T06:10:14;95806;;;8.18;56.66
2711;BME280;20721;47.402;8.550;2022-11-20T06:11:14;95809;;;8.22;56.77
2711;BME280;20721;47.402;8.550;2022-11-20T06:12:14;95810;;;8.25;56.60
2711;BME280;20721;47.402;8.550;2022-11-20T06:13:14;95813;;;8.31;56.60
2711;BME280;20721;47.402;8.550;2022-11-20T06:14:14;95813;;;8.36;56.58
2711;BME280;20721;47.402;8.550;2022-11-20T06:15:14;95816;;;8.39;56.51
2711;BME280;20721;47.402;8.550;2022-11-20T06:16:15;95818;;;8.45;56.47
2711;BME280;20721;47.402;8.550;2022-11-20T06:17:14;95815;;;8.50;56.24
2711;BME280;20721;47.402;8.550;2022-11-20T06:18:14;95817;;;8.55;56.32
2711;BME280;20721;47.402;8.550;2022-11-20T06:19:15;95820;;;8.56;56.03
2711;BME280;20721;47.402;8.550;2022-11-20T06:20:14;95821;;;8.58;56.10
2711;BME280;20721;47.402;8.550;2022-11-20T06:21:15;95821;;;8.62;55.92
2711;BME280;20721;47.402;8.550;2022-11-20T06:22:14;95824;;;8.64;55.90
2711;BME280;20721;47.402;8.550;2022-11-20T06:23:14;95826;;;8.63;55.75
2711;BME280;20721;47.402;8.550;2022-11-20T06:24:14;95821;;;8.61;55.89
2711;BME280;20721;47.402;8.550;2022-11-20T06:25:14;95821;;;8.60;55.95
2711;BME280;20721;47.402;8.550;2022-11-20T06:26:15;95820;;;8.62;55.96
2711;BME280;20721;47.402;8.550;2022-11-20T06:27:14;95818;;;8.64;55.92
2711;BME280;20721;47.402;8.550;2022-11-20T06:30:14;95813;;;8.65;56.01
2711;BME280;20721;47.402;8.550;2022-11-20T06:31:15;95814;;;8.66;55.89
2711;BME280;20721;47.402;8.550;2022-11-20T06:32:14;95813;;;8.62;56.06
2711;BME280;20721;47.402;8.550;2022-11-20T06:34:14;95808;;;8.58;56.07
2711;BME280;20721;47.402;8.550;2022-11-20T06:35:14;95803;;;8.54;56.22
2711;BME280;20721;47.402;8.550;2022-11-20T06:36:15;95806;;;8.22;56.64
2711;BME280;20721;47.402;8.550;2022-11-20T06:37:14;95808;;;8.03;57.39
2711;BME280;20721;47.402;8.550;2022-11-20T06:38:14;95807;;;7.89;58.14
2711;BME280;20721;47.402;8.550;2022-11-20T06:39:14;95807;;;7.81;58.42
2711;BME280;20721;47.402;8.550;2022-11-20T06:40:14;95805;;;7.76;59.09
2711;BME280;20721;47.402;8.550;2022-11-20T06:41:16;95804;;;7.79;59.19
2711;BME280;20721;47.402;8.550;2022-11-20T06:42:14;95808;;;7.84;59.26
2711;BME280;20721;47.402;8.550;2022-11-20T06:43:14;95808;;;7.92;59.08
2711;BME280;20721;47.402;8.550;2022-11-20T06:44:14;95814;;;7.99;58.96
2711;BME280;20721;47.402;8.550;2022-11-20T06:45:14;95815;;;8.04;58.91
2711;BME280;20721;47.402;8.550;2022-11-20T06:46:14;95813;;;8.11;59.12
2711;BME280;20721;47.402;8.550;2022-11-20T06:47:14;95813;;;8.17;58.99
2711;BME280;20721;47.402;8.550;2022-11-20T06:48:14;95812;;;8.18;58.69
2711;BME280;20721;47.402;8.550;2022-11-20T06:49:14;95815;;;8.14;58.48
2711;BME280;20721;47.402;8.550;2022-11-20T06:50:14;95813;;;8.17;58.61
2711;BME280;20721;47.402;8.550;2022-11-20T06:51:14;95815;;;8.21;58.83
2711;BME280;20721;47.402;8.550;2022-11-20T06:52:14;95817;;;8.27;58.61
2711;BME280;20721;47.402;8.550;2022-11-20T06:53:14;95815;;;8.31;58.46
2711;BME280;20721;47.402;8.550;2022-11-20T06:54:14;95819;;;8.34;58.39
2711;BME280;20721;47.402;8.550;2022-11-20T06:55:14;95818;;;8.38;58.30